sensor_id;sensor_type;location;lat;lon;timestamp;temperature;humidity
10472;DHT22;5283;48.876;8.962;2022-10-16T00:00:45;13.20;99.90
10472;DHT22;5283;48.876;8.962;2022-10-16T00:03:12;13.10;99.90
10472;DHT22;5283;48.876;8.962;2022-10-16T00:05:41;13.10;99.90
10472;DHT22;5283;48.876;8.962;2022-10-16T00:08:12;13.10;99.90
10472;DHT22;5283;48.876;8.962;2022-10-16T00:10:40;13.20;99.90
10472;DHT22;5283;48.876;8.962;2022-10-16T00:13:07;13.20;99.90
10472;DHT22;5283;48.876;8.962;2022-10-16T00:15:36;13.20;99.90
10472;DHT22;5283;48.876;8.962;2022-10-16T00:18:04;13.20;99.90
10472;DHT22;5283;48.876;8.962;2022-10-16T00:20:34;13.20;99.90
10472;DHT22;5283;48.876;8.962;2022-10-16T00:23:01;13.30;99.90
10472;DHT22;5283;48.876;8.962;2022-10-16T00:25:28;13.30;99.90
10472;DHT22;5283;48.876;8.962;2022-10-16T00:27:54;13.30;99.90
10472;DHT22;5283;48.876;8.962;2022-10-16T00:30:21;13.30;99.90
10472;DHT22;5283;48.876;8.962;2022-10-16T00:32:48;13.40;99.90
10472;DHT22;5283;48.876;8.962;2022-10-16T00:35:14;13.40;99.90
10472;DHT22;5283;48.876;8.962;2022-10-16T00:37:41;13.50;99.90
10472;DHT22;5283;48.876;8.962;2022-10-16T00:40:08;13.50;99.90
10472;DHT22;5283;48.876;8.962;2022-10-16T00:42:35;13.60;99.90
10472;DHT22;5283;48.876;8.962;2022-10-16T00:45:03;13.60;99.90
10472;DHT22;5283;48.876;8.962;2022-10-16T00:50:40;13.60;99.90
10472;DHT22;5283;48.876;8.962;2022-10-16T00:53:00;13.60;99.90
10472;DHT22;5283;48.876;8.962;2022-10-16T00:55:28;13.60;99.90
10472;DHT22;5283;48.876;8.962;2022-10-16T00:57:57;13.60;99.90
10472;DHT22;5283;48.876;8.962;2022-10-16T01:00:26;13.70;99.90
10472;DHT22;5283;48.876;8.962;2022-10-16T01:02:54;13.70;99.90
10472;DHT22;5283;48.876;8.962;2022-10-16T01:05:23;13.70;99.90
10472;DHT22;5283;48.876;8.962;2022-10-16T01:08:13;13.70;99.90
10472;DHT22;5283;48.876;8.962;2022-10-16T01:10:54;13.70;99.90
10472;DHT22;5283;48.876;8.962;2022-10-16T01:13:44;13.80;99.90
10472;DHT22;5283;48.876;8.962;2022-10-16T01:16:41;13.70;99.90
10472;DHT22;5283;48.876;8.962;2022-10-16T01:19:23;13.70;99.90
10472;DHT22;5283;48.876;8.962;2022-10-16T01:21:53;13.70;99.90
10472;DHT22;5283;48.876;8.962;2022-10-16T01:24:31;13.70;99.90
10472;DHT22;5283;48.876;8.962;2022-10-16T01:27:15;13.60;99.90
10472;DHT22;5283;48.876;8.962;2022-10-16T01:35:36;13.70;99.90
10472;DHT22;5283;48.876;8.962;2022-10-16T01:38:08;13.70;99.90
10472;DHT22;5283;48.876;8.962;2022-10-16T01:40:39;13.80;99.90
10472;DHT22;5283;48.876;8.962;2022-10-16T01:43:20;13.70;99.90
10472;DHT22;5283;48.876;8.962;2022-10-16T01:45:49;13.70;99.90
10472;DHT22;5283;48.876;8.962;2022-10-16T01:48:18;13.70;99.90
10472;DHT22;5283;48.876;8.962;2022-10-16T01:50:58;13.70;99.90
10472;DHT22;5283;48.876;8.962;2022-10-16T01:53:26;13.80;99.90
10472;DHT22;5283;48.876;8.962;2022-10-16T01:55:55;13.80;99.90
10472;DHT22;5283;48.876;8.962;2022-10-16T01:58:22;13.80;99.90
10472;DHT22;5283;48.876;8.962;2022-10-16T02:00:50;13.80;99.90
10472;DHT22;5283;48.876;8.962;2022-10-16T02:03:19;13.90;99.90
10472;DHT22;5283;48.876;8.962;2022-10-16T02:05:56;13.90;99.90
10472;DHT22;5283;48.876;8.962;2022-10-16T02:08:28;13.90;99.90
10472;DHT22;5283;48.876;8.962;2022-10-16T02:10:57;13.80;99.90
10472;DHT22;5283;48.876;8.962;2022-10-16T02:13:39;13.90;99.90
10472;DHT22;5283;48.876;8.962;2022-10-16T02:16:09;13.80;99.90
10472;DHT22;5283;48.876;8.962;2022-10-16T02:18:36;13.80;99.90
10472;DHT22;5283;48.876;8.962;2022-10-16T02:24:33;13.80;99.90
10472;DHT22;5283;48.876;8.962;2022-10-16T02:29:55;13.50;99.90
10472;DHT22;5283;48.876;8.962;2022-10-16T02:32:29;13.50;99.90
10472;DHT22;5283;48.876;8.962;2022-10-16T02:34:58;13.50;99.90
10472;DHT22;5283;48.876;8.962;2022-10-16T02:37:26;13.50;99.90
10472;DHT22;5283;48.876;8.962;2022-10-16T02:39:56;13.50;99.90
10472;DHT22;5283;48.876;8.962;2022-10-16T02:42:29;13.50;99.90
10472;DHT22;5283;48.876;8.962;2022-10-16T02:44:56;13.40;99.90
10472;DHT22;5283;48.876;8.962;2022-10-16T02:47:22;13.40;99.90
10472;DHT22;5283;48.876;8.962;2022-10-16T02:49:49;13.30;99.90
10472;DHT22;5283;48.876;8.962;2022-10-16T02:52:16;13.30;99.90
10472;DHT22;5283;48.876;8.962;2022-10-16T02:54:42;13.30;99.90
10472;DHT22;5283;48.876;8.962;2022-10-16T02:57:09;13.20;99.90
10472;DHT22;5283;48.876;8.962;2022-10-16T02:59:36;13.20;99.90
10472;DHT22;5283;48.876;8.962;2022-10-16T03:02:02;13.30;99.90
10472;DHT22;5283;48.876;8.962;2022-10-16T03:04:29;13.30;99.90
10472;DHT22;5283;48.876;8.962;2022-10-16T03:06:56;13.40;99.90
10472;DHT22;5283;48.876;8.962;2022-10-16T03:09:22;13.30;99.90
10472;DHT22;5283;48.876;8.962;2022-10-16T03:11:49;13.30;99.90
10472;DHT22;5283;48.876;8.962;2022-10-16T03:14:16;13.30;99.90
10472;DHT22;5283;48.876;8.962;2022-10-16T03:16:42;13.20;99.90
10472;DHT22;5283;48.876;8.962;2022-10-16T03:19:09;13.20;99.90
10472;DHT22;5283;48.876;8.962;2022-10-16T03:21:36;13.20;99.90
10472;DHT22;5283;48.876;8.962;2022-10-16T03:24:03;13.20;99.90
10472;DHT22;5283;48.876;8.962;2022-10-16T03:26:29;13.10;99.90
10472;DHT22;5283;48.876;8.962;2022-10-16T03:28:56;13.10;99.90
10472;DHT22;5283;48.876;8.962;2022-10-16T03:31:23;13.20;99.90
10472;DHT22;5283;48.876;8.962;2022-10-16T03:33:49;13.20;99.90
10472;DHT22;5283;48.876;8.962;2022-10-16T03:36:16;13.30;99.90
10472;DHT22;5283;48.876;8.962;2022-10-16T03:38:43;13.20;99.90
10472;DHT22;5283;48.876;8.962;2022-10-16T03:41:09;13.20;99.90
10472;DHT22;5283;48.876;8.962;2022-10-16T03:43:36;13.10;99.90
10472;DHT22;5283;48.876;8.962;2022-10-16T03:46:03;13.10;99.90
10472;DHT22;5283;48.876;8.962;2022-10-16T03:48:30;13.10;99.90
10472;DHT22;5283;48.876;8.962;2022-10-16T03:50:56;13.10;99.90
10472;DHT22;5283;48.876;8.962;2022-10-16T03:53:23;13.10;99.90
10472;DHT22;5283;48.876;8.962;2022-10-16T03:55:49;13.00;99.90
10472;DHT22;5283;48.876;8.962;2022-10-16T03:58:16;13.00;99.90
10472;DHT22;5283;48.876;8.962;2022-10-16T04:00:44;13.00;99.90
10472;DHT22;5283;48.876;8.962;2022-10-16T04:03:11;13.00;99.90
10472;DHT22;5283;48.876;8.962;2022-10-16T04:05:38;13.00;99.90
10472;DHT22;5283;48.876;8.962;2022-10-16T04:08:05;12.90;99.90
10472;DHT22;5283;48.876;8.962;2022-10-16T04:10:32;12.90;99.90
10472;DHT22;5283;48.876;8.962;2022-10-16T04:12:59;12.80;99.90
10472;DHT22;5283;48.876;8.962;2022-10-16T04:15:26;12.90;99.90
10472;DHT22;5283;48.876;8.962;2022-10-16T04:17:52;12.90;99.90
10472;DHT22;5283;48.876;8.962;2022-10-16T04:20:19;12.90;99.90
10472;DHT22;5283;48.876;8.962;2022-10-16T04:22:46;12.90;99.90
10472;DHT22;5283;48.876;8.962;2022-10-16T04:25:12;12.90;99.90
10472;DHT22;5283;48.876;8.962;2022-10-16T04:27:39;12.90;99.90
10472;DHT22;5283;48.876;8.962;2022-10-16T04:30:06;13.00;99.90
10472;DHT22;5283;48.876;8.962;2022-10-16T04:32:33;13.00;99.90
10472;DHT22;5283;48.876;8.962;2022-10-16T04:35:00;13.00;99.90
10472;DHT22;5283;48.876;8.962;2022-10-16T04:37:27;13.10;99.90
10472;DHT22;5283;48.876;8.962;2022-10-16T04:39:54;13.20;99.90
10472;DHT22;5283;48.876;8.962;2022-10-16T04:42:21;13.20;99.90
10472;DHT22;5283;48.876;8.962;2022-10-16T04:44:47;13.30;99.90
10472;DHT22;5283;48.876;8.962;2022-10-16T04:47:14;13.30;99.90
10472;DHT22;5283;48.876;8.962;2022-10-16T04:49:41;13.30;99.90
10472;DHT22;5283;48.876;8.962;2022-10-16T04:52:07;13.30;99.90
10472;DHT22;5283;48.876;8.962;2022-10-16T04:54:36;13.30;99.90
10472;DHT22;5283;48.876;8.962;2022-10-16T04:57:02;13.30;99.90
10472;DHT22;5283;48.876;8.962;2022-10-16T04:59:31;13.40;99.90
10472;DHT22;5283;48.876;8.962;2022-10-16T05:01:57;13.30;99.90
10472;DHT22;5283;48.876;8.962;2022-10-16T05:04:24;13.30;99.90
10472;DHT22;5283;48.876;8.962;2022-10-16T05:06:51;13.30;99.90
10472;DHT22;5283;48.876;8.962;2022-10-16T05:09:17;13.30;99.90
10472;DHT22;5283;48.876;8.962;2022-10-16T05:11:44;13.20;99.90
10472;DHT22;5283;48.876;8.962;2022-10-16T05:14:11;13.20;99.90
10472;DHT22;5283;48.876;8.962;2022-10-16T05:16:37;13.20;99.90
10472;DHT22;5283;48.876;8.962;2022-10-16T05:19:04;13.10;99.90
10472;DHT22;5283;48.876;8.962;2022-10-16T05:21:48;13.10;99.90
10472;DHT22;5283;48.876;8.962;2022-10-16T05:24:14;13.10;99.90
10472;DHT22;5283;48.876;8.962;2022-10-16T05:26:41;13.10;99.90
10472;DHT22;5283;48.876;8.962;2022-10-16T05:29:09;13.20;99.90
10472;DHT22;5283;48.876;8.962;2022-10-16T05:31:35;13.20;99.90
10472;DHT22;5283;48.876;8.962;2022-10-16T05:34:02;13.20;99.90
10472;DHT22;5283;48.876;8.962;2022-10-16T05:36:29;13.30;99.90
10472;DHT22;5283;48.876;8.962;2022-10-16T05:38:55;13.30;99.90
10472;DHT22;5283;48.876;8.962;2022-10-16T05:41:22;13.30;99.90
10472;DHT22;5283;48.876;8.962;2022-10-16T05:43:52;13.30;99.90
10472;DHT22;5283;48.876;8.962;2022-10-16T05:46:19;13.20;99.90
10472;DHT22;5283;48.876;8.962;2022-10-16T05:48:46;13.10;99.90
10472;DHT22;5283;48.876;8.962;2022-10-16T05:51:14;13.10;99.90
10472;DHT22;5283;48.876;8.962;2022-10-16T05:53:41;13.10;99.90
10472;DHT22;5283;48.876;8.962;2022-10-16T05:56:13;13.10;99.90
10472;DHT22;5283;48.876;8.962;2022-10-16T05:58:41;13.10;99.90
10472;DHT22;5283;48.876;8.962;2022-10-16T06:01:14;13.10;99.90
10472;DHT22;5283;48.876;8.962;2022-10-16T06:03:41;13.20;99.90
10472;DHT22;5283;48.876;8.962;2022-10-16T06:06:13;13.20;99.90
10472;DHT22;5283;48.876;8.962;2022-10-16T06:08:42;13.20;99.90
10472;DHT22;5283;48.876;8.962;2022-10-16T06:11:11;13.20;99.90
10472;DHT22;5283;48.876;8.962;2022-10-16T06:13:38;13.30;99.90
10472;DHT22;5283;48.876;8.962;2022-10-16T06:16:08;13.30;99.90
10472;DHT22;5283;48.876;8.962;2022-10-16T06:18:35;13.30;99.90
10472;DHT22;5283;48.876;8.962;2022-10-16T06:21:08;13.30;99.90
10472;DHT22;5283;48.876;8.962;2022-10-16T06:23:36;13.40;99.90
10472;DHT22;5283;48.876;8.962;2022-10-16T06:26:08;13.40;99.90
10472;DHT22;5283;48.876;8.962;2022-10-16T06:28:35;13.40;99.90
10472;DHT22;5283;48.876;8.962;2022-10-16T06:31:03;13.40;99.90
10472;DHT22;5283;48.876;8.962;2022-10-16T06:33:31;13.50;99.90
10472;DHT22;5283;48.876;8.962;2022-10-16T06:36:07;13.50;99.90
10472;DHT22;5283;48.876;8.962;2022-10-16T06:38:35;13.60;99.90
10472;DHT22;5283;48.876;8.962;2022-10-16T06:41:02;13.70;99.90
10472;DHT22;5283;48.876;8.962;2022-10-16T06:43:30;13.70;99.90
10472;DHT22;5283;48.876;8.962;2022-10-16T06:46:00;13.80;99.90
10472;DHT22;5283;48.876;8.962;2022-10-16T06:48:28;13.90;99.90
10472;DHT22;5283;48.876;8.962;2022-10-16T06:51:03;14.00;99.90
10472;DHT22;5283;48.876;8.962;2022-10-16T06:53:37;14.10;99.90
10472;DHT22;5283;48.876;8.962;2022-10-16T06:56:20;14.20;99.90
10472;DHT22;5283;48.876;8.962;2022-10-16T06:58:47;14.30;99.90
10472;DHT22;5283;48.876;8.962;2022-10-16T07:01:15;14.40;99.90
10472;DHT22;5283;48.876;8.962;2022-10-16T07:03:43;14.40;99.90
10472;DHT22;5283;48.876;8.962;2022-10-16T07:06:12;14.50;99.90
10472;DHT22;5283;48.876;8.962;2022-10-16T07:08:41;14.50;99.90
10472;DHT22;5283;48.876;8.962;2022-10-16T07:11:14;14.60;99.90
10472;DHT22;5283;48.876;8.962;2022-10-16T07:13:42;14.60;99.90
10472;DHT22;5283;48.876;8.962;2022-10-16T07:16:11;14.70;99.90
10472;DHT22;5283;48.876;8.962;2022-10-16T07:18:39;14.70;99.90
10472;DHT22;5283;48.876;8.962;2022-10-16T07:21:08;14.70;99.90
10472;DHT22;5283;48.876;8.962;2022-10-16T07:23:35;14.80;99.90
10472;DHT22;5283;48.876;8.962;2022-10-16T07:26:04;14.80;99.90
10472;DHT22;5283;48.876;8.962;2022-10-16T07:28:31;14.70;99.90
10472;DHT22;5283;48.876;8.962;2022-10-16T07:31:07;14.80;99.90
10472;DHT22;5283;48.876;8.962;2022-10-16T07:33:35;14.80;99.90
10472;DHT22;5283;48.876;8.962;2022-10-16T07:36:01;14.80;99.90
10472;DHT22;5283;48.876;8.962;2022-10-16T07:38:28;14.90;99.90
10472;DHT22;5283;48.876;8.962;2022-10-16T07:40:59;15.00;99.90
10472;DHT22;5283;48.876;8.962;2022-10-16T07:43:27;15.10;99.90
10472;DHT22;5283;48.876;8.962;2022-10-16T07:45:54;15.30;99.90
10472;DHT22;5283;48.876;8.962;2022-10-16T07:48:22;15.50;99.90
10472;DHT22;5283;48.876;8.962;2022-10-16T07:50:49;15.80;99.90
10472;DHT22;5283;48.876;8.962;2022-10-16T07:53:16;16.00;99.90
10472;DHT22;5283;48.876;8.962;2022-10-16T07:55:43;16.40;99.90
10472;DHT22;5283;48.876;8.962;2022-10-16T07:58:10;16.70;99.90
10472;DHT22;5283;48.876;8.962;2022-10-16T08:00:37;17.10;99.90
10472;DHT22;5283;48.876;8.962;2022-10-16T08:03:04;17.30;99.90
10472;DHT22;5283;48.876;8.962;2022-10-16T08:05:32;17.70;99.90
10472;DHT22;5283;48.876;8.962;2022-10-16T08:08:00;17.90;99.90
10472;DHT22;5283;48.876;8.962;2022-10-16T08:10:28;18.20;99.90
10472;DHT22;5283;48.876;8.962;2022-10-16T08:12:55;18.20;99.90
10472;DHT22;5283;48.876;8.962;2022-10-16T08:15:22;18.40;99.90
10472;DHT22;5283;48.876;8.962;2022-10-16T08:18:00;18.50;99.90
10472;DHT22;5283;48.876;8.962;2022-10-16T08:20:27;18.50;99.90
10472;DHT22;5283;48.876;8.962;2022-10-16T08:22:54;18.50;99.90
10472;DHT22;5283;48.876;8.962;2022-10-16T08:25:23;18.60;99.90
10472;DHT22;5283;48.876;8.962;2022-10-16T08:27:50;18.60;99.90
10472;DHT22;5283;48.876;8.962;2022-10-16T08:30:19;18.60;99.90
10472;DHT22;5283;48.876;8.962;2022-10-16T08:32:46;18.70;99.90
10472;DHT22;5283;48.876;8.962;2022-10-16T08:35:13;18.60;99.90
10472;DHT22;5283;48.876;8.962;2022-10-16T08:37:42;18.70;99.90
10472;DHT22;5283;48.876;8.962;2022-10-16T08:40:24;18.70;99.90
10472;DHT22;5283;48.876;8.962;2022-10-16T08:48:49;18.90;99.90
10472;DHT22;5283;48.876;8.962;2022-10-16T08:51:23;18.90;99.90
10472;DHT22;5283;48.876;8.962;2022-10-16T08:53:59;18.90;99.90
10472;DHT22;5283;48.876;8.962;2022-10-16T08:56:26;18.90;99.90
10472;DHT22;5283;48.876;8.962;2022-10-16T08:58:54;18.90;99.90
10472;DHT22;5283;48.876;8.962;2022-10-16T09:01:23;19.00;99.90
10472;DHT22;5283;48.876;8.962;2022-10-16T09:07:01;19.10;99.90
10472;DHT22;5283;48.876;8.962;2022-10-16T09:12:33;19.20;99.90
10472;DHT22;5283;48.876;8.962;2022-10-16T09:15:25;19.20;99.90
10472;DHT22;5283;48.876;8.962;2022-10-16T09:18:10;19.10;99.90
10472;DHT22;5283;48.876;8.962;2022-10-16T09:23:45;18.80;99.90
10472;DHT22;5283;48.876;8.962;2022-10-16T09:26:14;18.60;99.90
10472;DHT22;5283;48.876;8.962;2022-10-16T09:28:42;18.50;99.90
10472;DHT22;5283;48.876;8.962;2022-10-16T09:31:17;18.40;99.90
10472;DHT22;5283;48.876;8.962;2022-10-16T09:33:47;18.50;99.90
10472;DHT22;5283;48.876;8.962;2022-10-16T09:36:14;18.60;99.90
10472;DHT22;5283;48.876;8.962;2022-10-16T09:38:42;18.80;99.90
10472;DHT22;5283;48.876;8.962;2022-10-16T09:41:19;19.00;99.90
10472;DHT22;5283;48.876;8.962;2022-10-16T09:43:48;19.30;99.90
10472;DHT22;5283;48.876;8.962;2022-10-16T09:46:26;19.50;99.90
10472;DHT22;5283;48.876;8.962;2022-10-16T09:48:58;19.70;99.90
10472;DHT22;5283;48.876;8.962;2022-10-16T09:51:32;19.70;99.90
10472;DHT22;5283;48.876;8.962;2022-10-16T09:56:37;19.90;99.90
10472;DHT22;5283;48.876;8.962;2022-10-16T10:01:42;20.00;99.90
10472;DHT22;5283;48.876;8.962;2022-10-16T10:04:11;20.00;99.90
10472;DHT22;5283;48.876;8.962;2022-10-16T10:06:46;20.00;99.90
10472;DHT22;5283;48.876;8.962;2022-10-16T10:11:51;20.20;99.90
10472;DHT22;5283;48.876;8.962;2022-10-16T10:14:37;20.50;99.90
10472;DHT22;5283;48.876;8.962;2022-10-16T10:19:44;20.70;99.90
10472;DHT22;5283;48.876;8.962;2022-10-16T10:27:52;20.30;99.90
10472;DHT22;5283;48.876;8.962;2022-10-16T10:31:03;20.40;99.90
10472;DHT22;5283;48.876;8.962;2022-10-16T10:33:47;20.70;99.90
10472;DHT22;5283;48.876;8.962;2022-10-16T10:36:29;21.00;99.90
10472;DHT22;5283;48.876;8.962;2022-10-16T10:38:59;21.20;99.90
10472;DHT22;5283;48.876;8.962;2022-10-16T10:46:35;22.40;99.90
10472;DHT22;5283;48.876;8.962;2022-10-16T10:49:19;22.60;99.90
10472;DHT22;5283;48.876;8.962;2022-10-16T10:54:53;22.70;99.90
10472;DHT22;5283;48.876;8.962;2022-10-16T10:57:25;22.60;99.90
10472;DHT22;5283;48.876;8.962;2022-10-16T11:00:16;22.30;99.90
10472;DHT22;5283;48.876;8.962;2022-10-16T11:03:02;22.00;99.90
10472;DHT22;5283;48.876;8.962;2022-10-16T11:05:50;21.80;99.90
10472;DHT22;5283;48.876;8.962;2022-10-16T11:08:24;21.60;99.90
10472;DHT22;5283;48.876;8.962;2022-10-16T11:11:20;21.30;99.90
10472;DHT22;5283;48.876;8.962;2022-10-16T11:16:42;21.40;99.90
10472;DHT22;5283;48.876;8.962;2022-10-16T11:19:46;21.40;99.90
10472;DHT22;5283;48.876;8.962;2022-10-16T11:27:38;22.30;99.90
10472;DHT22;5283;48.876;8.962;2022-10-16T11:30:26;22.80;99.90
10472;DHT22;5283;48.876;8.962;2022-10-16T11:35:47;23.30;99.90
10472;DHT22;5283;48.876;8.962;2022-10-16T11:38:25;23.50;99.90
10472;DHT22;5283;48.876;8.962;2022-10-16T11:40:56;23.10;99.90
10472;DHT22;5283;48.876;8.962;2022-10-16T11:43:41;22.80;99.90
10472;DHT22;5283;48.876;8.962;2022-10-16T11:46:15;22.70;99.90
10472;DHT22;5283;48.876;8.962;2022-10-16T11:48:54;22.70;99.90
10472;DHT22;5283;48.876;8.962;2022-10-16T11:51:39;22.70;99.90
10472;DHT22;5283;48.876;8.962;2022-10-16T11:54:32;22.80;99.90
10472;DHT22;5283;48.876;8.962;2022-10-16T11:57:08;22.70;99.90
10472;DHT22;5283;48.876;8.962;2022-10-16T11:59:44;22.80;99.90
10472;DHT22;5283;48.876;8.962;2022-10-16T12:05:20;23.00;99.90
10472;DHT22;5283;48.876;8.962;2022-10-16T12:08:15;22.80;99.90
10472;DHT22;5283;48.876;8.962;2022-10-16T12:10:44;22.30;99.90
10472;DHT22;5283;48.876;8.962;2022-10-16T12:18:41;22.60;99.90
10472;DHT22;5283;48.876;8.962;2022-10-16T12:21:09;22.70;99.90
10472;DHT22;5283;48.876;8.962;2022-10-16T12:23:51;22.70;99.90
10472;DHT22;5283;48.876;8.962;2022-10-16T12:26:31;22.40;99.90
10472;DHT22;5283;48.876;8.962;2022-10-16T12:31:48;22.50;99.90
10472;DHT22;5283;48.876;8.962;2022-10-16T12:34:27;22.40;99.90
10472;DHT22;5283;48.876;8.962;2022-10-16T12:36:55;22.30;99.90
10472;DHT22;5283;48.876;8.962;2022-10-16T12:39:34;22.20;99.90
10472;DHT22;5283;48.876;8.962;2022-10-16T12:42:05;22.10;99.90
10472;DHT22;5283;48.876;8.962;2022-10-16T12:44:44;22.10;99.90
10472;DHT22;5283;48.876;8.962;2022-10-16T12:47:24;22.10;99.90
10472;DHT22;5283;48.876;8.962;2022-10-16T12:50:01;22.10;99.90
10472;DHT22;5283;48.876;8.962;2022-10-16T12:55:00;22.20;99.90
10472;DHT22;5283;48.876;8.962;2022-10-16T13:00:24;22.60;99.90
10472;DHT22;5283;48.876;8.962;2022-10-16T13:08:21;22.70;99.90
10472;DHT22;5283;48.876;8.962;2022-10-16T13:13:50;23.00;99.90
10472;DHT22;5283;48.876;8.962;2022-10-16T13:16:35;23.20;99.90
10472;DHT22;5283;48.876;8.962;2022-10-16T13:19:38;23.20;99.90
10472;DHT22;5283;48.876;8.962;2022-10-16T13:30:34;23.40;99.90
10472;DHT22;5283;48.876;8.962;2022-10-16T13:35:54;23.10;99.90
10472;DHT22;5283;48.876;8.962;2022-10-16T13:38:23;22.90;99.90
10472;DHT22;5283;48.876;8.962;2022-10-16T13:40:57;22.80;99.90
10472;DHT22;5283;48.876;8.962;2022-10-16T13:43:39;23.00;99.90
10472;DHT22;5283;48.876;8.962;2022-10-16T13:46:19;23.50;99.90
10472;DHT22;5283;48.876;8.962;2022-10-16T13:48:56;23.50;99.90
10472;DHT22;5283;48.876;8.962;2022-10-16T13:51:25;23.40;99.90
10472;DHT22;5283;48.876;8.962;2022-10-16T13:53:51;23.20;99.90
10472;DHT22;5283;48.876;8.962;2022-10-16T13:56:20;23.10;99.90
10472;DHT22;5283;48.876;8.962;2022-10-16T13:59:02;23.00;99.90
10472;DHT22;5283;48.876;8.962;2022-10-16T14:01:49;23.00;99.90
10472;DHT22;5283;48.876;8.962;2022-10-16T14:04:18;22.90;99.90
10472;DHT22;5283;48.876;8.962;2022-10-16T14:06:46;22.90;99.90
10472;DHT22;5283;48.876;8.962;2022-10-16T14:09:27;23.00;99.90
10472;DHT22;5283;48.876;8.962;2022-10-16T14:12:07;23.10;99.90
10472;DHT22;5283;48.876;8.962;2022-10-16T14:14:41;23.10;99.90
10472;DHT22;5283;48.876;8.962;2022-10-16T14:17:16;22.90;99.90
10472;DHT22;5283;48.876;8.962;2022-10-16T14:19:49;22.80;99.90
10472;DHT22;5283;48.876;8.962;2022-10-16T14:22:32;22.60;99.90
10472;DHT22;5283;48.876;8.962;2022-10-16T14:24:59;22.40;99.90
10472;DHT22;5283;48.876;8.962;2022-10-16T14:27:34;22.40;99.90
10472;DHT22;5283;48.876;8.962;2022-10-16T14:32:34;22.10;99.90
10472;DHT22;5283;48.876;8.962;2022-10-16T14:35:01;22.10;99.90
10472;DHT22;5283;48.876;8.962;2022-10-16T14:37:28;22.20;99.90
10472;DHT22;5283;48.876;8.962;2022-10-16T14:39:56;22.40;99.90
10472;DHT22;5283;48.876;8.962;2022-10-16T14:42:24;22.40;99.90
10472;DHT22;5283;48.876;8.962;2022-10-16T14:44:53;22.50;99.90
10472;DHT22;5283;48.876;8.962;2022-10-16T14:47:23;22.60;99.90
10472;DHT22;5283;48.876;8.962;2022-10-16T14:49:53;22.60;99.90
10472;DHT22;5283;48.876;8.962;2022-10-16T14:52:25;22.60;99.90
10472;DHT22;5283;48.876;8.962;2022-10-16T14:54:52;22.60;99.90
10472;DHT22;5283;48.876;8.962;2022-10-16T14:57:24;22.70;99.90
10472;DHT22;5283;48.876;8.962;2022-10-16T14:59:53;22.90;99.90
10472;DHT22;5283;48.876;8.962;2022-10-16T15:02:30;23.10;99.90
10472;DHT22;5283;48.876;8.962;2022-10-16T15:04:57;23.30;99.90
10472;DHT22;5283;48.876;8.962;2022-10-16T15:07:24;23.30;99.90
10472;DHT22;5283;48.876;8.962;2022-10-16T15:09:52;23.20;99.90
10472;DHT22;5283;48.876;8.962;2022-10-16T15:12:19;22.90;99.90
10472;DHT22;5283;48.876;8.962;2022-10-16T15:14:46;22.60;99.90
10472;DHT22;5283;48.876;8.962;2022-10-16T15:17:12;22.40;99.90
10472;DHT22;5283;48.876;8.962;2022-10-16T15:19:39;22.00;99.90
10472;DHT22;5283;48.876;8.962;2022-10-16T15:22:05;21.80;99.90
10472;DHT22;5283;48.876;8.962;2022-10-16T15:24:32;21.80;99.90
10472;DHT22;5283;48.876;8.962;2022-10-16T15:26:59;21.80;99.90
10472;DHT22;5283;48.876;8.962;2022-10-16T15:29:25;21.40;99.90
10472;DHT22;5283;48.876;8.962;2022-10-16T15:31:52;20.80;99.90
10472;DHT22;5283;48.876;8.962;2022-10-16T15:34:19;20.60;99.90
10472;DHT22;5283;48.876;8.962;2022-10-16T15:36:46;20.60;99.90
10472;DHT22;5283;48.876;8.962;2022-10-16T15:39:15;20.50;99.90
10472;DHT22;5283;48.876;8.962;2022-10-16T15:41:43;20.40;99.90
10472;DHT22;5283;48.876;8.962;2022-10-16T15:44:10;20.40;99.90
10472;DHT22;5283;48.876;8.962;2022-10-16T15:46:37;20.30;99.90
10472;DHT22;5283;48.876;8.962;2022-10-16T15:49:04;20.30;99.90
10472;DHT22;5283;48.876;8.962;2022-10-16T15:51:30;20.10;99.90
10472;DHT22;5283;48.876;8.962;2022-10-16T15:53:59;19.90;99.90
10472;DHT22;5283;48.876;8.962;2022-10-16T15:56:28;19.80;99.90
10472;DHT22;5283;48.876;8.962;2022-10-16T15:58:55;19.50;99.90
10472;DHT22;5283;48.876;8.962;2022-10-16T16:01:23;19.20;99.90
10472;DHT22;5283;48.876;8.962;2022-10-16T16:03:53;19.10;99.90
10472;DHT22;5283;48.876;8.962;2022-10-16T16:06:20;19.00;99.90
10472;DHT22;5283;48.876;8.962;2022-10-16T16:08:47;18.80;99.90
10472;DHT22;5283;48.876;8.962;2022-10-16T16:11:16;18.50;99.90
10472;DHT22;5283;48.876;8.962;2022-10-16T16:13:43;18.30;99.90
10472;DHT22;5283;48.876;8.962;2022-10-16T16:16:15;18.20;99.90
10472;DHT22;5283;48.876;8.962;2022-10-16T16:18:42;18.10;99.90
10472;DHT22;5283;48.876;8.962;2022-10-16T16:21:11;17.90;99.90
10472;DHT22;5283;48.876;8.962;2022-10-16T16:23:38;17.80;99.90
10472;DHT22;5283;48.876;8.962;2022-10-16T16:26:23;17.70;99.90
10472;DHT22;5283;48.876;8.962;2022-10-16T16:28:54;17.50;99.90
10472;DHT22;5283;48.876;8.962;2022-10-16T16:31:26;17.30;99.90
10472;DHT22;5283;48.876;8.962;2022-10-16T16:33:53;17.20;99.90
10472;DHT22;5283;48.876;8.962;2022-10-16T16:36:20;17.20;99.90
10472;DHT22;5283;48.876;8.962;2022-10-16T16:38:47;17.20;99.90
10472;DHT22;5283;48.876;8.962;2022-10-16T16:41:19;17.20;99.90
10472;DHT22;5283;48.876;8.962;2022-10-16T16:43:46;17.10;99.90
10472;DHT22;5283;48.876;8.962;2022-10-16T16:46:18;17.00;99.90
10472;DHT22;5283;48.876;8.962;2022-10-16T16:48:45;16.80;99.90
10472;DHT22;5283;48.876;8.962;2022-10-16T16:51:17;16.60;99.90
10472;DHT22;5283;48.876;8.962;2022-10-16T16:53:48;16.40;99.90
10472;DHT22;5283;48.876;8.962;2022-10-16T16:56:15;16.20;99.90
10472;DHT22;5283;48.876;8.962;2022-10-16T16:58:45;16.00;99.90
10472;DHT22;5283;48.876;8.962;2022-10-16T17:01:13;15.90;99.90
10472;DHT22;5283;48.876;8.962;2022-10-16T17:03:48;15.70;99.90
10472;DHT22;5283;48.876;8.962;2022-10-16T17:06:15;15.60;99.90
10472;DHT22;5283;48.876;8.962;2022-10-16T17:08:44;15.60;99.90
10472;DHT22;5283;48.876;8.962;2022-10-16T17:11:16;15.60;99.90
10472;DHT22;5283;48.876;8.962;2022-10-16T17:13:43;15.50;99.90
10472;DHT22;5283;48.876;8.962;2022-10-16T17:16:10;15.40;99.90
10472;DHT22;5283;48.876;8.962;2022-10-16T17:18:37;15.30;99.90
10472;DHT22;5283;48.876;8.962;2022-10-16T17:21:08;15.20;99.90
10472;DHT22;5283;48.876;8.962;2022-10-16T17:23:35;14.90;99.90
10472;DHT22;5283;48.876;8.962;2022-10-16T17:26:12;14.80;99.90
10472;DHT22;5283;48.876;8.962;2022-10-16T17:28:39;15.00;99.90
10472;DHT22;5283;48.876;8.962;2022-10-16T17:31:10;15.00;99.90
10472;DHT22;5283;48.876;8.962;2022-10-16T17:33:37;14.70;99.90
10472;DHT22;5283;48.876;8.962;2022-10-16T17:36:05;14.60;99.90
10472;DHT22;5283;48.876;8.962;2022-10-16T17:38:32;14.40;99.90
10472;DHT22;5283;48.876;8.962;2022-10-16T17:41:08;14.30;99.90
10472;DHT22;5283;48.876;8.962;2022-10-16T17:43:36;14.40;99.90
10472;DHT22;5283;48.876;8.962;2022-10-16T17:46:03;14.40;99.90
10472;DHT22;5283;48.876;8.962;2022-10-16T17:48:30;14.30;99.90
10472;DHT22;5283;48.876;8.962;2022-10-16T17:50:56;14.20;99.90